sensor_id;sensor_type;location;lat;lon;timestamp;pressure;altitude;pressure_sealevel;temperature;humidity
14882;BME280;7533;51.278;12.588;2023-03-14T00:04:42;97903.88;;;22.52;61.44
14882;BME280;7533;51.278;12.588;2023-03-14T00:09:45;97900.47;;;22.50;61.35
14882;BME280;7533;51.278;12.588;2023-03-14T00:14:47;97896.28;;;22.48;61.66
14882;BME280;7533;51.278;12.588;2023-03-14T00:19:52;97903.72;;;22.46;61.54
14882;BME280;7533;51.278;12.588;2023-03-14T00:24:55;97887.88;;;22.42;61.77
14882;BME280;7533;51.278;12.588;2023-03-14T00:29:58;97892.75;;;22.39;61.87
14882;BME280;7533;51.278;12.588;2023-03-14T00:35:03;97894.28;;;22.33;61.96
14882;BME280;7533;51.278;12.588;2023-03-14T00:40:08;97909.97;;;22.30;62.11
14882;BME280;7533;51.278;12.588;2023-03-14T00:45:11;97925.78;;;22.25;62.14
14882;BME280;7533;51.278;12.588;2023-03-14T00:50:15;97916.34;;;22.21;62.30
14882;BME280;7533;51.278;12.588;2023-03-14T00:55:20;97918.38;;;22.18;62.45
14882;BME280;7533;51.278;12.588;2023-03-14T01:00:23;97897.31;;;22.14;62.52
14882;BME280;7533;51.278;12.588;2023-03-14T01:05:27;97903.91;;;22.11;62.78
14882;BME280;7533;51.278;12.588;2023-03-14T01:10:30;97921.38;;;22.07;62.73
14882;BME280;7533;51.278;12.588;2023-03-14T01:15:34;97939.72;;;22.04;62.95
14882;BME280;7533;51.278;12.588;2023-03-14T01:20:38;97937.19;;;22.02;63.09
14882;BME280;7533;51.278;12.588;2023-03-14T01:25:41;97945.59;;;21.99;63.08
14882;BME280;7533;51.278;12.588;2023-03-14T01:30:44;97953.00;;;21.97;63.11
14882;BME280;7533;51.278;12.588;2023-03-14T01:35:50;97935.50;;;21.93;63.27
14882;BME280;7533;51.278;12.588;2023-03-14T01:40:54;97925.22;;;21.88;63.38
14882;BME280;7533;51.278;12.588;2023-03-14T01:46:22;97927.25;;;21.86;63.22
14882;BME280;7533;51.278;12.588;2023-03-14T01:51:30;97941.88;;;21.84;63.44
14882;BME280;7533;51.278;12.588;2023-03-14T01:56:38;97939.50;;;21.81;63.48
14882;BME280;7533;51.278;12.588;2023-03-14T02:01:43;97933.47;;;21.79;63.69
14882;BME280;7533;51.278;12.588;2023-03-14T02:06:52;97932.63;;;21.78;63.84
14882;BME280;7533;51.278;12.588;2023-03-14T02:12:02;97910.56;;;21.75;63.97
14882;BME280;7533;51.278;12.588;2023-03-14T02:17:22;97927.91;;;21.72;64.04
14882;BME280;7533;51.278;12.588;2023-03-14T02:23:00;97918.13;;;21.71;64.20
14882;BME280;7533;51.278;12.588;2023-03-14T02:28:05;97908.38;;;21.70;64.26
14882;BME280;7533;51.278;12.588;2023-03-14T02:33:11;97904.31;;;21.66;64.24
14882;BME280;7533;51.278;12.588;2023-03-14T02:38:22;97885.81;;;21.63;64.22
14882;BME280;7533;51.278;12.588;2023-03-14T02:43:28;97882.47;;;21.61;64.24
14882;BME280;7533;51.278;12.588;2023-03-14T02:48:38;97882.59;;;21.59;64.65
14882;BME280;7533;51.278;12.588;2023-03-14T02:53:44;97881.09;;;21.57;64.47
14882;BME280;7533;51.278;12.588;2023-03-14T02:58:50;97876.88;;;21.54;64.80
14882;BME280;7533;51.278;12.588;2023-03-14T03:04:06;97863.59;;;21.53;64.78
14882;BME280;7533;51.278;12.588;2023-03-14T03:09:09;97855.84;;;21.50;64.86
14882;BME280;7533;51.278;12.588;2023-03-14T03:14:13;97869.47;;;21.48;64.99
14882;BME280;7533;51.278;12.588;2023-03-14T03:19:16;97881.22;;;21.47;64.84
14882;BME280;7533;51.278;12.588;2023-03-14T03:24:19;97882.41;;;21.45;64.83
14882;BME280;7533;51.278;12.588;2023-03-14T03:29:23;97876.50;;;21.41;64.98
14882;BME280;7533;51.278;12.588;2023-03-14T03:34:27;97862.41;;;21.39;65.06
14882;BME280;7533;51.278;12.588;2023-03-14T03:39:31;97851.78;;;21.37;65.23
14882;BME280;7533;51.278;12.588;2023-03-14T03:44:36;97837.66;;;21.35;65.07
14882;BME280;7533;51.278;12.588;2023-03-14T03:49:38;97829.59;;;21.35;65.41
14882;BME280;7533;51.278;12.588;2023-03-14T03:54:43;97830.59;;;21.34;65.25
14882;BME280;7533;51.278;12.588;2023-03-14T03:59:48;97836.28;;;21.31;65.58
14882;BME280;7533;51.278;12.588;2023-03-14T04:04:51;97819.31;;;21.31;65.58
14882;BME280;7533;51.278;12.588;2023-03-14T04:09:54;97826.69;;;21.29;65.83
14882;BME280;7533;51.278;12.588;2023-03-14T04:15:11;97823.28;;;21.27;65.67
14882;BME280;7533;51.278;12.588;2023-03-14T04:20:20;97835.06;;;21.26;65.69
14882;BME280;7533;51.278;12.588;2023-03-14T04:25:23;97835.06;;;21.26;65.98
14882;BME280;7533;51.278;12.588;2023-03-14T04:30:31;97813.06;;;21.22;65.73
14882;BME280;7533;51.278;12.588;2023-03-14T04:35:40;97824.97;;;21.20;65.48
14882;BME280;7533;51.278;12.588;2023-03-14T04:40:46;97801.59;;;21.20;65.46
14882;BME280;7533;51.278;12.588;2023-03-14T04:45:53;97806.50;;;21.17;65.18
14882;BME280;7533;51.278;12.588;2023-03-14T04:50:56;97805.78;;;21.14;65.20
14882;BME280;7533;51.278;12.588;2023-03-14T04:56:01;97795.03;;;21.14;65.05
14882;BME280;7533;51.278;12.588;2023-03-14T05:01:12;97781.09;;;21.11;65.06
14882;BME280;7533;51.278;12.588;2023-03-14T05:06:41;97774.00;;;21.10;64.85
14882;BME280;7533;51.278;12.588;2023-03-14T05:12:03;97794.03;;;21.07;64.79
14882;BME280;7533;51.278;12.588;2023-03-14T05:17:26;97782.59;;;21.05;64.94
14882;BME280;7533;51.278;12.588;2023-03-14T05:22:45;97779.06;;;21.05;64.88
14882;BME280;7533;51.278;12.588;2023-03-14T05:27:58;97780.22;;;21.02;64.84
14882;BME280;7533;51.278;12.588;2023-03-14T05:33:23;97754.34;;;21.01;64.78
14882;BME280;7533;51.278;12.588;2023-03-14T05:38:53;97744.59;;;21.00;64.80
14882;BME280;7533;51.278;12.588;2023-03-14T05:44:19;97751.13;;;20.98;64.86
14882;BME280;7533;51.278;12.588;2023-03-14T05:49:48;97753.16;;;20.96;64.87
14882;BME280;7533;51.278;12.588;2023-03-14T05:55:14;97748.78;;;20.95;64.74
14882;BME280;7533;51.278;12.588;2023-03-14T06:00:29;97747.94;;;20.94;64.80
14882;BME280;7533;51.278;12.588;2023-03-14T06:05:51;97760.69;;;20.92;64.74
14882;BME280;7533;51.278;12.588;2023-03-14T06:10:57;97764.41;;;20.91;64.73
14882;BME280;7533;51.278;12.588;2023-03-14T06:16:05;97776.16;;;20.90;64.62
14882;BME280;7533;51.278;12.588;2023-03-14T06:21:09;97769.94;;;20.90;64.75
14882;BME280;7533;51.278;12.588;2023-03-14T06:26:12;97787.09;;;20.89;64.70
14882;BME280;7533;51.278;12.588;2023-03-14T06:31:15;97783.56;;;20.88;64.55
14882;BME280;7533;51.278;12.588;2023-03-14T06:36:28;97774.78;;;20.86;64.75
14882;BME280;7533;51.278;12.588;2023-03-14T06:41:32;97769.41;;;20.86;64.65
14882;BME280;7533;51.278;12.588;2023-03-14T06:46:35;97770.25;;;20.86;64.67
14882;BME280;7533;51.278;12.588;2023-03-14T06:51:39;97772.09;;;20.86;64.62
14882;BME280;7533;51.278;12.588;2023-03-14T06:56:44;97775.63;;;20.86;64.60
14882;BME280;7533;51.278;12.588;2023-03-14T07:01:48;97780.16;;;20.86;64.43
14882;BME280;7533;51.278;12.588;2023-03-14T07:06:54;97779.34;;;20.85;64.63
14882;BME280;7533;51.278;12.588;2023-03-14T07:11:58;97785.53;;;20.86;64.60
14882;BME280;7533;51.278;12.588;2023-03-14T07:17:01;97764.22;;;20.84;64.38
14882;BME280;7533;51.278;12.588;2023-03-14T07:22:05;97776.47;;;20.87;64.63
14882;BME280;7533;51.278;12.588;2023-03-14T07:27:08;97780.16;;;20.86;64.42
14882;BME280;7533;51.278;12.588;2023-03-14T07:32:12;97771.09;;;20.87;64.30
14882;BME280;7533;51.278;12.588;2023-03-14T07:37:18;97773.78;;;20.87;64.32
14882;BME280;7533;51.278;12.588;2023-03-14T07:42:21;97770.97;;;20.89;64.38
14882;BME280;7533;51.278;12.588;2023-03-14T07:47:34;97772.63;;;20.90;64.31
14882;BME280;7533;51.278;12.588;2023-03-14T07:52:38;97773.47;;;20.90;64.21
14882;BME280;7533;51.278;12.588;2023-03-14T07:57:41;97778.69;;;20.92;64.05
14882;BME280;7533;51.278;12.588;2023-03-14T08:02:44;97788.28;;;20.94;63.97
14882;BME280;7533;51.278;12.588;2023-03-14T08:07:48;97791.81;;;20.95;63.93
14882;BME280;7533;51.278;12.588;2023-03-14T08:12:54;97773.47;;;20.98;64.02
14882;BME280;7533;51.278;12.588;2023-03-14T08:17:58;97773.16;;;21.01;64.00
14882;BME280;7533;51.278;12.588;2023-03-14T08:23:02;97758.41;;;21.05;63.71
14882;BME280;7533;51.278;12.588;2023-03-14T08:28:05;97755.53;;;21.07;63.67
14882;BME280;7533;51.278;12.588;2023-03-14T08:33:08;97765.56;;;20.46;54.16
14882;BME280;7533;51.278;12.588;2023-03-14T08:38:12;97766.44;;;18.33;55.87
14882;BME280;7533;51.278;12.588;2023-03-14T08:43:15;97763.06;;;17.84;57.94
14882;BME280;7533;51.278;12.588;2023-03-14T08:48:18;97764.44;;;19.17;58.67
14882;BME280;7533;51.278;12.588;2023-03-14T08:53:22;97765.91;;;19.65;59.50
14882;BME280;7533;51.278;12.588;2023-03-14T08:58:25;97765.75;;;19.93;60.04
14882;BME280;7533;51.278;12.588;2023-03-14T09:03:28;97759.88;;;20.15;59.85
14882;BME280;7533;51.278;12.588;2023-03-14T09:08:32;97767.84;;;20.33;59.85
14882;BME280;7533;51.278;12.588;2023-03-14T09:13:38;97753.28;;;20.44;59.87
14882;BME280;7533;51.278;12.588;2023-03-14T09:18:41;97760.25;;;20.54;59.79
14882;BME280;7533;51.278;12.588;2023-03-14T09:23:46;97770.84;;;20.64;59.83
14882;BME280;7533;51.278;12.588;2023-03-14T09:28:48;97778.25;;;20.70;59.88
14882;BME280;7533;51.278;12.588;2023-03-14T09:33:51;97776.28;;;20.72;60.13
14882;BME280;7533;51.278;12.588;2023-03-14T09:38:56;97777.13;;;20.81;60.20
14882;BME280;7533;51.278;12.588;2023-03-14T09:44:02;97780.03;;;20.88;60.20
14882;BME280;7533;51.278;12.588;2023-03-14T09:49:11;97787.59;;;20.92;60.62
14882;BME280;7533;51.278;12.588;2023-03-14T09:54:28;97787.94;;;20.97;60.56
14882;BME280;7533;51.278;12.588;2023-03-14T09:59:34;97797.38;;;21.01;60.66
14882;BME280;7533;51.278;12.588;2023-03-14T10:04:38;97793.66;;;21.02;60.58
14882;BME280;7533;51.278;12.588;2023-03-14T10:09:48;97789.81;;;21.05;60.73
14882;BME280;7533;51.278;12.588;2023-03-14T10:14:52;97788.63;;;21.07;61.07
14882;BME280;7533;51.278;12.588;2023-03-14T10:19:57;97789.47;;;21.08;60.87
14882;BME280;7533;51.278;12.588;2023-03-14T10:25:05;97801.06;;;21.08;60.92
14882;BME280;7533;51.278;12.588;2023-03-14T10:30:28;97799.91;;;21.11;60.86
14882;BME280;7533;51.278;12.588;2023-03-14T10:35:34;97802.44;;;21.12;61.09
14882;BME280;7533;51.278;12.588;2023-03-14T10:40:40;97796.22;;;21.12;61.13
14882;BME280;7533;51.278;12.588;2023-03-14T10:45:44;97800.59;;;21.13;61.31
14882;BME280;7533;51.278;12.588;2023-03-14T10:50:55;97804.13;;;21.13;61.39
14882;BME280;7533;51.278;12.588;2023-03-14T10:56:02;97809.50;;;21.13;61.41
14882;BME280;7533;51.278;12.588;2023-03-14T11:01:15;97813.88;;;21.14;61.39
14882;BME280;7533;51.278;12.588;2023-03-14T11:06:25;97805.31;;;21.19;61.53
14882;BME280;7533;51.278;12.588;2023-03-14T11:11:33;97809.53;;;21.22;61.79
14882;BME280;7533;51.278;12.588;2023-03-14T11:16:46;97804.16;;;21.22;62.39
14882;BME280;7533;51.278;12.588;2023-03-14T11:21:59;97805.31;;;21.19;62.89
14882;BME280;7533;51.278;12.588;2023-03-14T11:27:16;97804.94;;;21.14;62.80
14882;BME280;7533;51.278;12.588;2023-03-14T11:32:36;97822.09;;;21.13;62.90
14882;BME280;7533;51.278;12.588;2023-03-14T11:37:46;97822.41;;;21.10;62.83
14882;BME280;7533;51.278;12.588;2023-03-14T11:42:56;97829.50;;;21.11;62.97
14882;BME280;7533;51.278;12.588;2023-03-14T11:48:19;97819.72;;;21.10;62.56
14882;BME280;7533;51.278;12.588;2023-03-14T11:53:33;97817.91;;;21.10;62.68
14882;BME280;7533;51.278;12.588;2023-03-14T11:58:45;97813.72;;;21.16;62.77
14882;BME280;7533;51.278;12.588;2023-03-14T12:03:55;97806.84;;;21.22;62.81
14882;BME280;7533;51.278;12.588;2023-03-14T12:09:02;97791.53;;;21.22;62.83
14882;BME280;7533;51.278;12.588;2023-03-14T12:14:19;97798.41;;;21.25;62.41
14882;BME280;7533;51.278;12.588;2023-03-14T12:19:32;97792.88;;;21.26;62.49
14882;BME280;7533;51.278;12.588;2023-03-14T12:24:37;97785.34;;;21.30;62.32
14882;BME280;7533;51.278;12.588;2023-03-14T12:30:00;97778.66;;;21.34;62.27
14882;BME280;7533;51.278;12.588;2023-03-14T12:35:30;97770.88;;;21.31;62.12
14882;BME280;7533;51.278;12.588;2023-03-14T12:40:39;97768.38;;;21.29;62.42
14882;BME280;7533;51.278;12.588;2023-03-14T12:46:09;97775.56;;;21.29;62.52
14882;BME280;7533;51.278;12.588;2023-03-14T12:51:19;97770.72;;;21.32;62.41
14882;BME280;7533;51.278;12.588;2023-03-14T12:56:45;97767.03;;;21.33;62.54
14882;BME280;7533;51.278;12.588;2023-03-14T13:01:56;97756.44;;;21.40;62.27
14882;BME280;7533;51.278;12.588;2023-03-14T13:07:02;97757.97;;;21.51;61.93
14882;BME280;7533;51.278;12.588;2023-03-14T13:12:10;97755.97;;;21.61;61.74
14882;BME280;7533;51.278;12.588;2023-03-14T13:17:27;97742.47;;;21.69;61.51
14882;BME280;7533;51.278;12.588;2023-03-14T13:22:36;97732.38;;;21.71;61.23
14882;BME280;7533;51.278;12.588;2023-03-14T13:27:40;97709.34;;;21.69;61.23
14882;BME280;7533;51.278;12.588;2023-03-14T13:32:46;97702.09;;;21.69;61.30
14882;BME280;7533;51.278;12.588;2023-03-14T13:37:55;97703.31;;;21.67;61.43
14882;BME280;7533;51.278;12.588;2023-03-14T13:43:16;97716.22;;;21.71;61.26
14882;BME280;7533;51.278;12.588;2023-03-14T13:48:21;97710.00;;;21.79;61.13
14882;BME280;7533;51.278;12.588;2023-03-14T13:53:25;97720.09;;;21.77;61.29
14882;BME280;7533;51.278;12.588;2023-03-14T13:58:30;97716.91;;;21.73;60.98
14882;BME280;7533;51.278;12.588;2023-03-14T14:03:37;97712.31;;;22.14;60.86
14882;BME280;7533;51.278;12.588;2023-03-14T14:08:41;97708.91;;;22.04;60.93
14882;BME280;7533;51.278;12.588;2023-03-14T14:13:45;97699.34;;;22.10;61.01
14882;BME280;7533;51.278;12.588;2023-03-14T14:18:50;97704.41;;;21.97;61.43
14882;BME280;7533;51.278;12.588;2023-03-14T14:23:54;97706.63;;;21.85;61.62
14882;BME280;7533;51.278;12.588;2023-03-14T14:29:03;97704.13;;;21.83;61.73
14882;BME280;7533;51.278;12.588;2023-03-14T14:34:19;97704.25;;;21.90;61.59
14882;BME280;7533;51.278;12.588;2023-03-14T14:39:24;97710.50;;;21.90;61.90
14882;BME280;7533;51.278;12.588;2023-03-14T14:44:32;97711.31;;;21.91;58.06
14882;BME280;7533;51.278;12.588;2023-03-14T14:49:38;97712.88;;;21.53;53.73
14882;BME280;7533;51.278;12.588;2023-03-14T14:54:44;97714.41;;;21.63;58.25
14882;BME280;7533;51.278;12.588;2023-03-14T14:59:48;97712.00;;;21.77;59.42
14882;BME280;7533;51.278;12.588;2023-03-14T15:04:55;97733.22;;;21.80;59.92
14882;BME280;7533;51.278;12.588;2023-03-14T15:09:58;97733.22;;;21.80;59.86
14882;BME280;7533;51.278;12.588;2023-03-14T15:15:01;97749.38;;;21.80;60.41
14882;BME280;7533;51.278;12.588;2023-03-14T15:20:10;97757.63;;;21.78;60.27
14882;BME280;7533;51.278;12.588;2023-03-14T15:25:16;97780.31;;;21.76;60.24
14882;BME280;7533;51.278;12.588;2023-03-14T15:30:39;97875.22;;;21.70;60.28
14882;BME280;7533;51.278;12.588;2023-03-14T15:35:44;97957.16;;;21.67;60.81
14882;BME280;7533;51.278;12.588;2023-03-14T15:40:47;98006.09;;;21.62;61.02
14882;BME280;7533;51.278;12.588;2023-03-14T15:45:49;98033.31;;;21.51;60.87
14882;BME280;7533;51.278;12.588;2023-03-14T15:50:54;98065.22;;;21.46;60.96
14882;BME280;7533;51.278;12.588;2023-03-14T15:55:57;98102.22;;;21.44;61.28
14882;BME280;7533;51.278;12.588;2023-03-14T16:01:01;98119.69;;;21.40;61.32
14882;BME280;7533;51.278;12.588;2023-03-14T16:06:06;98153.13;;;21.37;61.46
14882;BME280;7533;51.278;12.588;2023-03-14T16:11:09;98193.97;;;21.33;61.93
14882;BME280;7533;51.278;12.588;2023-03-14T16:16:13;98223.03;;;21.29;61.89
14882;BME280;7533;51.278;12.588;2023-03-14T16:21:19;98243.47;;;21.22;62.05
14882;BME280;7533;51.278;12.588;2023-03-14T16:26:22;98278.88;;;21.18;62.08
14882;BME280;7533;51.278;12.588;2023-03-14T16:31:25;98314.47;;;21.11;62.51
14882;BME280;7533;51.278;12.588;2023-03-14T16:36:30;98356.78;;;21.09;62.38
14882;BME280;7533;51.278;12.588;2023-03-14T16:41:33;98388.22;;;21.09;62.25
14882;BME280;7533;51.278;12.588;2023-03-14T16:46:36;98421.81;;;21.05;62.46
14882;BME280;7533;51.278;12.588;2023-03-14T16:51:41;98446.44;;;21.00;62.46
14882;BME280;7533;51.278;12.588;2023-03-14T16:56:44;98431.44;;;20.98;62.64
14882;BME280;7533;51.278;12.588;2023-03-14T17:01:48;98496.31;;;20.95;62.68
14882;BME280;7533;51.278;12.588;2023-03-14T17:06:52;98523.59;;;21.00;63.29
14882;BME280;7533;51.278;12.588;2023-03-14T17:11:55;98574.28;;;20.95;63.16
14882;BME280;7533;51.278;12.588;2023-03-14T17:16:58;98592.97;;;20.96;63.50
14882;BME280;7533;51.278;12.588;2023-03-14T17:22:05;98626.50;;;21.02;63.36
14882;BME280;7533;51.278;12.588;2023-03-14T17:27:24;98648.13;;;21.10;63.13
14882;BME280;7533;51.278;12.588;2023-03-14T17:32:27;98681.56;;;21.17;63.14
14882;BME280;7533;51.278;12.588;2023-03-14T17:37:31;98689.75;;;21.25;62.96
14882;BME280;7533;51.278;12.588;2023-03-14T17:42:35;98719.53;;;21.33;62.93
14882;BME280;7533;51.278;12.588;2023-03-14T17:47:37;98744.03;;;21.40;62.93
14882;BME280;7533;51.278;12.588;2023-03-14T17:52:42;98758.59;;;21.47;62.89
14882;BME280;7533;51.278;12.588;2023-03-14T17:57:44;98772.75;;;21.49;62.71
14882;BME280;7533;51.278;12.588;2023-03-14T18:02:47;98784.78;;;21.55;62.54
14882;BME280;7533;51.278;12.588;2023-03-14T18:07:52;98790.59;;;21.60;62.48
14882;BME280;7533;51.278;12.588;2023-03-14T18:12:55;98807.16;;;21.65;62.63
14882;BME280;7533;51.278;12.588;2023-03-14T18:17:58;98819.19;;;21.71;62.33
14882;BME280;7533;51.278;12.588;2023-03-14T18:23:02;98827.28;;;21.71;62.05
14882;BME280;7533;51.278;12.588;2023-03-14T18:28:07;98838.47;;;21.76;61.60
14882;BME280;7533;51.278;12.588;2023-03-14T18:33:10;98858.06;;;21.78;61.39
14882;BME280;7533;51.278;12.588;2023-03-14T18:38:15;98856.75;;;21.82;61.21
14882;BME280;7533;51.278;12.588;2023-03-14T18:43:17;98872.50;;;21.77;61.26
14882;BME280;7533;51.278;12.588;2023-03-14T18:48:21;98884.25;;;21.85;60.93
14882;BME280;7533;51.278;12.588;2023-03-14T18:53:26;98885.81;;;21.88;60.88
14882;BME280;7533;51.278;12.588;2023-03-14T18:58:32;98909.78;;;21.91;60.81
14882;BME280;7533;51.278;12.588;2023-03-14T19:03:35;98924.09;;;21.91;60.74
14882;BME280;7533;51.278;12.588;2023-03-14T19:08:40;98944.50;;;21.94;60.63
14882;BME280;7533;51.278;12.588;2023-03-14T19:13:44;98961.22;;;21.98;60.52
14882;BME280;7533;51.278;12.588;2023-03-14T19:18:47;98974.44;;;22.01;60.24
14882;BME280;7533;51.278;12.588;2023-03-14T19:23:51;98998.69;;;22.01;60.24
14882;BME280;7533;51.278;12.588;2023-03-14T19:28:54;99012.16;;;22.01;60.35
14882;BME280;7533;51.278;12.588;2023-03-14T19:33:57;99021.78;;;22.03;60.07
14882;BME280;7533;51.278;12.588;2023-03-14T19:39:03;99030.56;;;22.05;60.10
14882;BME280;7533;51.278;12.588;2023-03-14T19:44:07;99044.63;;;22.09;60.09
14882;BME280;7533;51.278;12.588;2023-03-14T19:49:10;99056.00;;;22.12;59.70
14882;BME280;7533;51.278;12.588;2023-03-14T19:54:14;99066.78;;;22.12;59.60
14882;BME280;7533;51.278;12.588;2023-03-14T19:59:17;99070.19;;;22.14;59.77
14882;BME280;7533;51.278;12.588;2023-03-14T20:04:20;99079.97;;;22.15;59.78
14882;BME280;7533;51.278;12.588;2023-03-14T20:09:24;99100.25;;;22.20;59.76
14882;BME280;7533;51.278;12.588;2023-03-14T20:14:27;99110.91;;;22.21;59.68
14882;BME280;7533;51.278;12.588;2023-03-14T20:19:30;99126.94;;;22.23;59.75
14882;BME280;7533;51.278;12.588;2023-03-14T20:24:34;99133.03;;;22.25;59.59
14882;BME280;7533;51.278;12.588;2023-03-14T20:29:37;99138.28;;;22.26;59.58
14882;BME280;7533;51.278;12.588;2023-03-14T20:34:40;99139.88;;;22.29;59.56
14882;BME280;7533;51.278;12.588;2023-03-14T20:39:44;99150.75;;;22.27;59.35
14882;BME280;7533;51.278;12.588;2023-03-14T20:44:47;99152.19;;;22.31;59.25
14882;BME280;7533;51.278;12.588;2023-03-14T20:49:50;99160.56;;;22.28;59.37
14882;BME280;7533;51.278;12.588;2023-03-14T20:54:55;99167.38;;;22.32;59.32
14882;BME280;7533;51.278;12.588;2023-03-14T21:00:00;99173.63;;;22.33;59.35
14882;BME280;7533;51.278;12.588;2023-03-14T21:05:07;99180.84;;;22.32;59.32
14882;BME280;7533;51.278;12.588;2023-03-14T21:10:13;99183.28;;;22.35;59.17
14882;BME280;7533;51.278;12.588;2023-03-14T21:15:16;99204.00;;;22.35;59.24
14882;BME280;7533;51.278;12.588;2023-03-14T21:20:19;99207.53;;;22.35;59.29
14882;BME280;7533;51.278;12.588;2023-03-14T21:25:23;99207.69;;;22.34;57.89
14882;BME280;7533;51.278;12.588;2023-03-14T21:30:26;99238.75;;;22.28;58.58
14882;BME280;7533;51.278;12.588;2023-03-14T21:35:29;99242.00;;;22.32;58.93
14882;BME280;7533;51.278;12.588;2023-03-14T21:40:34;99251.22;;;22.29;59.28
14882;BME280;7533;51.278;12.588;2023-03-14T21:45:37;99253.91;;;22.29;59.27
14882;BME280;7533;51.278;12.588;2023-03-14T21:50:40;99258.56;;;22.27;59.47
14882;BME280;7533;51.278;12.588;2023-03-14T21:55:46;99269.66;;;22.24;59.63
14882;BME280;7533;51.278;12.588;2023-03-14T22:00:48;99268.91;;;22.22;59.81
14882;BME280;7533;51.278;12.588;2023-03-14T22:05:51;99284.22;;;22.22;60.05
14882;BME280;7533;51.278;12.588;2023-03-14T22:10:55;99284.97;;;22.24;59.93
14882;BME280;7533;51.278;12.588;2023-03-14T22:15:58;99295.59;;;22.25;59.84
14882;BME280;7533;51.278;12.588;2023-03-14T22:21:01;99299.84;;;22.28;59.76
14882;BME280;7533;51.278;12.588;2023-03-14T22:26:05;99308.81;;;22.28;59.86
14882;BME280;7533;51.278;12.588;2023-03-14T22:31:08;99320.56;;;22.27;59.79
14882;BME280;7533;51.278;12.588;2023-03-14T22:36:12;99330.81;;;22.33;59.86
14882;BME280;7533;51.278;12.588;2023-03-14T22:41:16;99339.91;;;22.32;59.71
14882;BME280;7533;51.278;12.588;2023-03-14T22:46:19;99349.19;;;22.39;59.86
14882;BME280;7533;51.278;12.588;2023-03-14T22:51:22;99355.53;;;22.38;59.69
14882;BME280;7533;51.278;12.588;2023-03-14T22:56:26;99371.44;;;22.41;59.90
14882;BME280;7533;51.278;12.588;2023-03-14T23:01:29;99373.00;;;22.44;59.76
14882;BME280;7533;51.278;12.588;2023-03-14T23:06:31;99381.38;;;22.41;59.74
14882;BME280;7533;51.278;12.588;2023-03-14T23:11:36;99381.38;;;22.41;59.73
14882;BME280;7533;51.278;12.588;2023-03-14T23:16:39;99382.47;;;22.38;59.83
14882;BME280;7533;51.278;12.588;2023-03-14T23:21:41;99389.72;;;22.38;59.75
14882;BME280;7533;51.278;12.588;2023-03-14T23:26:46;99395.25;;;22.36;59.58
14882;BME280;7533;51.278;12.588;2023-03-14T23:31:48;99399.66;;;22.37;59.72
14882;BME280;7533;51.278;12.588;2023-03-14T23:36:51;99405.34;;;22.34;59.63
14882;BME280;7533;51.278;12.588;2023-03-14T23:41:56;99406.44;;;22.32;59.82
14882;BME280;7533;51.278;12.588;2023-03-14T23:46:59;99414.06;;;22.27;59.97
14882;BME280;7533;51.278;12.588;2023-03-14T23:52:02;99414.59;;;22.21;60.12
14882;BME280;7533;51.278;12.588;2023-03-14T23:57:06;99428.59;;;22.14;60.26
